createdAt,value
2023-03-25T00:01:17.343Z,145095.81
2023-03-25T00:03:50.787Z,145160.09
2023-03-25T00:06:18.873Z,145177.09
2023-03-25T00:08:46.395Z,145189.25
2023-03-25T00:11:13.406Z,145121.31
2023-03-25T00:13:40.659Z,145184.41
2023-03-25T00:16:10.024Z,145148.00
2023-03-25T00:18:37.551Z,145205.00
2023-03-25T00:21:10.552Z,145195.28
2023-03-25T00:23:39.465Z,145145.56
2023-03-25T00:26:07.488Z,145171.03
2023-03-25T00:28:36.910Z,145150.41
2023-03-25T00:31:07.158Z,145150.41
2023-03-25T00:33:35.344Z,145069.13
2023-03-25T00:36:04.446Z,145131.00
2023-03-25T00:38:35.174Z,145140.69
2023-03-25T00:41:13.039Z,145076.41
2023-03-25T00:43:40.805Z,145075.22
2023-03-25T00:46:08.049Z,145038.81
2023-03-25T00:48:35.264Z,145072.75
2023-03-25T00:51:08.968Z,145104.31
2023-03-25T00:53:37.776Z,145109.16
2023-03-25T00:56:05.749Z,145089.75
2023-03-25T00:58:32.920Z,145038.81
2023-03-25T01:00:59.931Z,145058.22
2023-03-25T01:03:29.070Z,145076.41
2023-03-25T01:05:57.849Z,145071.56
2023-03-25T01:08:25.230Z,145050.94
2023-03-25T01:10:54.108Z,144952.72
2023-03-25T01:13:22.856Z,145031.53
2023-03-25T01:15:51.215Z,144996.34
2023-03-25T01:18:18.532Z,145015.78
2023-03-25T01:20:45.560Z,144993.94
2023-03-25T01:23:13.013Z,145004.84
2023-03-25T01:25:40.349Z,144992.75
2023-03-25T01:28:07.351Z,144903.00
2023-03-25T01:30:35.591Z,144992.75
2023-03-25T01:33:02.745Z,144979.41
2023-03-25T01:35:29.844Z,144968.47
2023-03-25T01:37:57.071Z,144980.59
2023-03-25T01:40:24.548Z,145033.97
2023-03-25T01:42:51.580Z,144987.91
2023-03-25T01:45:20.568Z,145050.94
2023-03-25T01:47:52.806Z,145076.41
2023-03-25T01:50:21.052Z,145049.72
2023-03-25T01:52:51.951Z,145059.41
2023-03-25T01:55:20.240Z,145070.38
2023-03-25T01:57:48.297Z,145071.56
2023-03-25T02:00:16.490Z,144991.50
2023-03-25T02:02:43.716Z,145055.81
2023-03-25T02:05:19.254Z,145054.56
2023-03-25T02:07:49.027Z,144990.31
2023-03-25T02:10:17.233Z,145065.50
2023-03-25T02:12:45.785Z,145020.63
2023-03-25T02:15:17.697Z,145070.38
2023-03-25T02:18:05.805Z,145019.44
2023-03-25T02:21:03.385Z,145030.34
2023-03-25T02:23:58.330Z,145026.69
2023-03-25T02:26:50.053Z,145043.69
2023-03-25T02:29:58.996Z,144966.06
2023-03-25T02:32:57.308Z,145071.56
2023-03-25T02:35:24.312Z,145064.28
2023-03-25T02:38:07.461Z,145009.69
2023-03-25T02:40:52.149Z,145061.88
2023-03-25T02:43:52.321Z,145054.56
2023-03-25T02:46:20.828Z,145070.38
2023-03-25T02:48:51.240Z,145076.41
2023-03-25T02:51:27.250Z,145076.41
2023-03-25T02:53:58.396Z,144978.16
2023-03-25T02:56:29.369Z,145025.47
2023-03-25T02:58:57.409Z,145052.16
2023-03-25T03:01:26.718Z,145041.22
2023-03-25T03:03:56.411Z,145014.53
2023-03-25T03:06:25.257Z,145077.63
2023-03-25T03:09:17.431Z,145077.63
2023-03-25T03:11:47.125Z,145084.91
2023-03-25T03:14:32.795Z,145084.91
2023-03-25T03:17:19.983Z,145064.28
2023-03-25T03:19:54.634Z,145053.38
2023-03-25T03:22:37.219Z,145050.94
2023-03-25T03:25:16.016Z,145014.53
2023-03-25T03:27:50.070Z,145009.69
2023-03-25T03:30:49.320Z,145029.13
2023-03-25T03:33:30.536Z,145036.38
2023-03-25T03:36:02.056Z,145021.84
2023-03-25T03:38:35.557Z,145020.63
2023-03-25T03:41:08.095Z,145012.13
2023-03-25T03:43:47.372Z,145021.84
2023-03-25T03:46:48.350Z,145014.53
2023-03-25T03:49:19.947Z,145012.13
2023-03-25T03:51:52.623Z,144964.88
2023-03-25T03:54:28.056Z,144944.22
2023-03-25T03:57:02.465Z,145004.84
2023-03-25T03:59:57.646Z,144992.75
2023-03-25T04:02:38.400Z,144973.31
2023-03-25T04:05:12.027Z,144967.28
2023-03-25T04:07:44.187Z,144956.38
2023-03-25T04:10:21.529Z,144966.06
2023-03-25T04:12:52.773Z,144911.50
2023-03-25T04:15:20.281Z,144984.25
2023-03-25T04:17:48.153Z,144906.66
2023-03-25T04:20:23.566Z,144985.47
2023-03-25T04:22:52.214Z,144997.59
2023-03-25T04:25:22.066Z,145008.50
2023-03-25T04:27:49.251Z,145038.81
2023-03-25T04:30:19.811Z,145014.53
2023-03-25T04:32:47.284Z,144963.63
2023-03-25T04:35:16.994Z,145020.63
2023-03-25T04:37:48.943Z,144972.13
2023-03-25T04:40:18.658Z,145009.69
2023-03-25T04:42:46.688Z,145010.94
2023-03-25T04:45:16.904Z,145002.44
2023-03-25T04:47:49.094Z,144997.59
2023-03-25T04:50:22.395Z,145002.44
2023-03-25T04:52:51.009Z,144936.94
2023-03-25T04:55:19.528Z,144975.75
2023-03-25T04:57:48.054Z,144973.31
2023-03-25T05:00:18.077Z,144985.47
2023-03-25T05:02:54.298Z,144997.59
2023-03-25T05:05:23.891Z,145001.25
2023-03-25T05:07:53.963Z,144958.78
2023-03-25T05:10:24.199Z,144958.78
2023-03-25T05:12:57.653Z,144964.88
2023-03-25T05:15:24.815Z,144949.09
2023-03-25T05:17:52.313Z,144913.91
2023-03-25T05:20:19.627Z,144938.19
2023-03-25T05:22:46.651Z,144970.91
2023-03-25T05:25:13.800Z,144972.13
2023-03-25T05:27:40.865Z,145000.00
2023-03-25T05:30:08.567Z,144984.25
2023-03-25T05:32:35.616Z,145017.00
2023-03-25T05:35:03.490Z,145021.84
2023-03-25T05:37:30.863Z,145007.28
2023-03-25T05:39:58.096Z,144961.22
2023-03-25T05:42:25.253Z,144978.16
2023-03-25T05:44:53.617Z,144997.59
2023-03-25T05:47:25.202Z,145023.03
2023-03-25T05:49:53.987Z,145017.00
2023-03-25T05:52:24.417Z,145002.44
2023-03-25T05:54:51.958Z,145013.34
2023-03-25T05:57:19.022Z,145027.88
2023-03-25T05:59:46.153Z,145038.81
2023-03-25T06:02:15.749Z,145063.06
2023-03-25T06:04:44.076Z,145050.94
2023-03-25T06:07:13.992Z,145063.06
2023-03-25T06:09:46.121Z,145087.31
2023-03-25T06:12:19.686Z,145070.38
2023-03-25T06:14:47.651Z,145049.72
2023-03-25T06:17:18.833Z,145002.44
2023-03-25T06:19:45.867Z,145017.00
2023-03-25T06:22:12.881Z,145049.72
2023-03-25T06:24:41.318Z,145053.38
2023-03-25T06:27:13.858Z,145075.22
2023-03-25T06:29:43.585Z,145072.75
2023-03-25T06:32:13.689Z,145082.47
2023-03-25T06:34:42.696Z,145035.19
2023-03-25T06:37:10.636Z,145050.94
2023-03-25T06:39:37.786Z,145049.72
2023-03-25T06:42:12.841Z,145074.00
2023-03-25T06:45:04.954Z,145118.84
2023-03-25T06:47:44.417Z,145110.41
2023-03-25T06:50:11.550Z,145092.22
2023-03-25T06:52:38.638Z,145075.22
2023-03-25T06:55:06.182Z,145109.16
2023-03-25T06:57:33.210Z,145109.16
2023-03-25T07:00:00.275Z,145145.56
2023-03-25T07:02:27.367Z,145225.66
2023-03-25T07:04:54.534Z,145192.91
2023-03-25T07:07:21.662Z,145201.41
2023-03-25T07:09:54.976Z,145285.16
2023-03-25T07:12:23.190Z,145274.25
2023-03-25T07:14:54.911Z,145235.34
2023-03-25T07:17:22.620Z,145268.16
2023-03-25T07:19:50.224Z,145320.38
2023-03-25T07:22:17.331Z,145360.38
2023-03-25T07:24:44.403Z,145388.34
2023-03-25T07:27:12.467Z,145342.19
2023-03-25T07:29:40.338Z,145390.75
2023-03-25T07:32:07.438Z,145321.56
2023-03-25T07:34:34.482Z,145296.06
2023-03-25T07:37:01.611Z,145304.56
2023-03-25T07:39:28.710Z,145257.25
2023-03-25T07:41:55.726Z,145303.38
2023-03-25T07:44:51.951Z,145417.47
2023-03-25T07:47:19.062Z,145303.38
2023-03-25T07:49:47.670Z,145292.47
2023-03-25T07:52:14.693Z,145269.34
2023-03-25T07:54:41.848Z,145229.28
2023-03-25T07:57:08.930Z,145201.41
2023-03-25T07:59:36.004Z,145222.00
2023-03-25T08:02:03.230Z,145111.59
2023-03-25T08:04:30.506Z,145158.91
2023-03-25T08:06:57.707Z,145087.31
2023-03-25T08:09:24.848Z,145027.88
2023-03-25T08:11:51.979Z,144998.81
2023-03-25T08:14:19.069Z,144996.34
2023-03-25T08:16:46.761Z,145033.97
2023-03-25T08:19:14.448Z,145007.28
2023-03-25T08:21:41.657Z,145070.38
2023-03-25T08:24:08.866Z,145019.44
2023-03-25T08:26:36.035Z,144900.56
2023-03-25T08:29:04.001Z,144985.47
2023-03-25T08:31:32.358Z,144949.09
2023-03-25T08:34:05.259Z,144918.75
2023-03-25T08:36:32.432Z,144847.28
2023-03-25T08:38:59.500Z,144723.63
2023-03-25T08:41:26.667Z,144759.97
2023-03-25T08:43:53.797Z,144769.72
2023-03-25T08:46:20.936Z,144798.78
2023-03-25T08:48:50.113Z,144859.34
2023-03-25T08:51:17.708Z,144854.50
2023-03-25T08:53:44.890Z,144889.69
2023-03-25T08:56:11.989Z,144870.31
2023-03-25T08:58:39.551Z,144966.06
2023-03-25T09:01:07.178Z,144990.31
2023-03-25T09:03:34.326Z,145035.19
2023-03-25T09:06:05.710Z,145037.63
2023-03-25T09:08:33.186Z,145030.34
2023-03-25T09:11:00.406Z,145075.22
2023-03-25T09:13:27.430Z,145140.69
2023-03-25T09:15:54.875Z,145161.34
2023-03-25T09:18:22.124Z,145225.66
2023-03-25T09:20:49.570Z,145228.06
2023-03-25T09:23:16.611Z,145283.97
2023-03-25T09:25:44.431Z,145356.78
2023-03-25T09:28:11.505Z,145354.34
2023-03-25T09:30:38.687Z,145449.03
2023-03-25T09:33:06.849Z,145534.06
2023-03-25T09:35:34.154Z,145476.97
2023-03-25T09:38:01.276Z,145441.75
2023-03-25T09:40:28.473Z,145537.69
2023-03-25T09:42:58.678Z,145534.06
2023-03-25T09:45:36.717Z,145388.34
2023-03-25T09:48:15.911Z,145231.69
2023-03-25T09:50:45.373Z,145342.19
2023-03-25T09:53:40.813Z,145311.88
2023-03-25T09:56:14.190Z,145330.06
2023-03-25T09:58:44.751Z,145395.63
2023-03-25T10:01:20.050Z,145422.31
2023-03-25T10:04:24.754Z,145446.59
2023-03-25T10:07:29.257Z,145490.34
2023-03-25T10:10:18.330Z,145459.97
2023-03-25T10:13:10.421Z,145490.34
2023-03-25T10:16:02.000Z,145517.06
2023-03-25T10:18:48.119Z,145427.19
2023-03-25T10:21:39.948Z,145455.09
2023-03-25T10:24:07.094Z,145473.31
2023-03-25T10:26:44.032Z,145541.34
2023-03-25T10:29:15.822Z,145570.50
2023-03-25T10:31:56.641Z,145628.78
2023-03-25T10:34:35.022Z,145609.38
2023-03-25T10:37:10.217Z,145781.97
2023-03-25T10:39:45.243Z,145713.91
2023-03-25T10:42:31.488Z,145657.97
2023-03-25T10:44:58.694Z,145687.13
2023-03-25T10:47:30.712Z,145594.78
2023-03-25T10:49:59.386Z,145636.09
2023-03-25T10:52:26.631Z,145662.84
2023-03-25T10:54:56.097Z,145631.25
2023-03-25T10:57:29.497Z,145636.09
2023-03-25T11:00:16.818Z,145684.72
2023-03-25T11:02:45.463Z,145614.22
2023-03-25T11:05:19.095Z,145603.31
2023-03-25T11:08:08.726Z,145549.84
2023-03-25T11:10:48.461Z,145538.94
2023-03-25T11:13:17.209Z,145665.25
2023-03-25T11:15:44.412Z,145747.97
2023-03-25T11:18:18.227Z,145716.38
2023-03-25T11:20:51.448Z,145730.94
2023-03-25T11:23:27.424Z,145755.22
2023-03-25T11:25:55.658Z,145717.56
2023-03-25T11:28:38.626Z,145628.78
2023-03-25T11:31:16.256Z,145623.94
2023-03-25T11:34:05.827Z,145740.66
2023-03-25T11:36:37.650Z,145868.28
2023-03-25T11:39:18.567Z,145845.19
2023-03-25T11:41:46.061Z,145915.69
2023-03-25T11:44:39.524Z,145980.13
2023-03-25T11:47:10.639Z,145972.88
2023-03-25T11:49:41.204Z,145854.91
2023-03-25T11:52:14.834Z,145869.50
2023-03-25T11:54:42.918Z,145879.22
2023-03-25T11:57:16.144Z,145930.28
2023-03-25T11:59:47.829Z,145858.56
2023-03-25T12:02:24.470Z,145789.28
2023-03-25T12:04:57.672Z,145862.22
2023-03-25T12:07:24.772Z,145862.22
2023-03-25T12:09:58.218Z,145881.66
2023-03-25T12:12:43.219Z,145926.66
2023-03-25T12:15:41.353Z,145994.78
2023-03-25T12:18:43.484Z,146117.69
2023-03-25T12:21:19.184Z,146027.59
2023-03-25T12:24:09.238Z,146059.22
2023-03-25T12:26:47.716Z,145981.38
2023-03-25T12:29:26.705Z,145964.34
2023-03-25T12:32:09.125Z,145976.53
2023-03-25T12:35:19.974Z,145992.31
2023-03-25T12:38:10.457Z,145943.66
2023-03-25T12:41:04.131Z,145942.44
2023-03-25T12:43:50.597Z,145904.78
2023-03-25T12:46:55.905Z,145899.91
2023-03-25T12:49:29.098Z,145982.59
2023-03-25T12:52:23.843Z,145954.63
2023-03-25T12:55:06.458Z,146064.09
2023-03-25T12:57:45.502Z,146043.41
2023-03-25T13:00:14.515Z,146131.03
2023-03-25T13:02:52.803Z,145998.38
2023-03-25T13:05:30.941Z,145976.53
2023-03-25T13:08:04.109Z,145863.44
2023-03-25T13:10:36.405Z,145850.06
2023-03-25T13:13:09.423Z,145761.28
2023-03-25T13:15:42.610Z,145615.44
2023-03-25T13:18:24.869Z,145639.75
2023-03-25T13:21:03.480Z,145713.91
2023-03-25T13:23:35.196Z,145796.56
2023-03-25T13:26:17.082Z,145820.84
2023-03-25T13:28:48.554Z,145914.50
2023-03-25T13:31:37.395Z,145910.84
2023-03-25T13:34:23.070Z,145918.16
2023-03-25T13:36:59.737Z,145957.03
2023-03-25T13:39:41.668Z,146066.50
2023-03-25T13:42:26.623Z,146122.56
2023-03-25T13:44:57.987Z,146100.63
2023-03-25T13:47:41.595Z,146138.34
2023-03-25T13:50:28.214Z,146197.97
2023-03-25T13:53:12.851Z,146134.69
2023-03-25T13:58:59.872Z,146329.44
2023-03-25T14:01:48.443Z,146356.22
2023-03-25T14:04:53.054Z,146326.97
2023-03-25T14:07:54.049Z,146224.75
2023-03-25T14:10:24.066Z,146167.53
2023-03-25T14:12:56.367Z,146064.09
2023-03-25T14:15:32.612Z,146131.03
2023-03-25T14:23:44.898Z,145662.84
2023-03-25T14:27:03.385Z,145752.81
2023-03-25T14:30:13.060Z,145762.53
2023-03-25T14:34:10.870Z,145966.75
2023-03-25T14:37:13.427Z,146045.84
2023-03-25T14:39:49.346Z,145966.75
2023-03-25T14:42:28.794Z,145881.66
2023-03-25T14:45:42.319Z,145791.69
2023-03-25T14:48:26.030Z,145591.13
2023-03-25T14:51:29.652Z,145422.31
2023-03-25T14:54:02.965Z,145354.34
2023-03-25T14:56:42.612Z,145305.78
2023-03-25T14:59:15.594Z,145232.91
2023-03-25T15:01:45.484Z,145205.00
2023-03-25T15:04:38.498Z,145143.16
2023-03-25T15:07:11.803Z,144995.16
2023-03-25T15:09:50.873Z,145004.84
2023-03-25T15:12:23.913Z,145017.00
2023-03-25T15:14:56.776Z,145109.16
2023-03-25T15:17:44.622Z,145131.00
2023-03-25T15:20:23.517Z,145172.25
2023-03-25T15:23:18.475Z,145151.66
2023-03-25T15:25:48.402Z,145080.06
2023-03-25T15:28:27.676Z,145169.84
2023-03-25T15:31:23.380Z,145232.91
2023-03-25T15:34:18.077Z,145280.31
2023-03-25T15:37:17.450Z,145274.25
2023-03-25T15:40:00.837Z,145262.09
2023-03-25T15:43:02.148Z,145311.88
2023-03-25T15:45:40.247Z,145379.84
2023-03-25T15:48:22.066Z,145344.63
2023-03-25T15:50:49.779Z,145456.34
2023-03-25T15:53:42.379Z,145466.06
2023-03-25T15:56:12.132Z,145496.41
2023-03-25T15:58:57.882Z,145502.50
2023-03-25T16:01:30.041Z,145388.34
2023-03-25T16:04:03.725Z,145381.06
2023-03-25T16:06:34.404Z,145387.09
2023-03-25T16:09:02.875Z,145315.50
2023-03-25T16:11:29.984Z,145307.00
2023-03-25T16:14:11.501Z,145326.41
2023-03-25T16:16:44.241Z,145617.88
2023-03-25T16:19:19.357Z,145623.94
2023-03-25T16:21:51.796Z,145638.56
2023-03-25T16:24:20.561Z,145553.50
2023-03-25T16:26:49.099Z,145455.09
2023-03-25T16:29:22.796Z,145317.91
2023-03-25T16:32:04.042Z,145355.53
2023-03-25T16:34:40.393Z,145303.38
2023-03-25T16:37:07.850Z,145288.81
2023-03-25T16:39:36.748Z,145296.06
2023-03-25T16:42:11.724Z,145292.47
2023-03-25T16:44:38.970Z,145257.25
2023-03-25T16:47:06.513Z,145274.25
2023-03-25T16:49:39.735Z,145229.28
2023-03-25T16:52:14.177Z,145223.19
2023-03-25T16:55:06.124Z,145232.91
2023-03-25T16:57:37.370Z,145237.81
2023-03-25T17:00:18.822Z,145230.50
2023-03-25T17:02:49.655Z,145145.56
2023-03-25T17:05:26.507Z,145155.25
2023-03-25T17:08:05.019Z,145186.78
2023-03-25T17:10:47.509Z,145158.91
2023-03-25T17:13:22.834Z,145288.81
2023-03-25T17:15:51.584Z,145245.06
2023-03-25T17:18:22.441Z,145271.81
2023-03-25T17:20:50.506Z,145290.00
2023-03-25T17:23:27.326Z,145256.03
2023-03-25T17:26:00.452Z,145262.09
2023-03-25T17:28:58.306Z,145288.81
2023-03-25T17:31:38.875Z,145259.66
2023-03-25T17:34:07.409Z,145269.34
2023-03-25T17:36:37.825Z,145157.69
2023-03-25T17:39:16.205Z,145197.75
2023-03-25T17:41:43.565Z,145139.50
2023-03-25T17:44:17.312Z,145179.53
2023-03-25T17:46:44.878Z,145167.41
2023-03-25T17:49:19.542Z,145140.69
2023-03-25T17:51:46.884Z,145157.69
2023-03-25T17:54:14.664Z,145247.50
2023-03-25T17:56:42.627Z,145211.09
2023-03-25T17:59:19.196Z,145279.09
2023-03-25T18:01:47.587Z,145264.50
2023-03-25T18:04:15.456Z,145072.75
2023-03-25T18:06:43.696Z,145133.44
2023-03-25T18:09:23.809Z,145200.16
2023-03-25T18:11:53.902Z,145165.00
2023-03-25T18:14:22.070Z,145101.91
2023-03-25T18:16:50.803Z,145104.31
2023-03-25T18:19:21.631Z,145150.41
2023-03-25T18:21:49.154Z,145112.81
2023-03-25T18:24:16.367Z,145083.72
2023-03-25T18:26:44.654Z,145174.69
2023-03-25T18:29:18.268Z,145138.31
2023-03-25T18:31:46.493Z,145152.84
2023-03-25T18:34:15.435Z,145155.25
2023-03-25T18:36:43.767Z,145188.03
2023-03-25T18:39:16.729Z,145186.78
2023-03-25T18:41:44.440Z,145189.25
2023-03-25T18:44:12.089Z,145094.59
2023-03-25T18:46:39.769Z,145194.09
2023-03-25T18:49:16.149Z,145194.09
2023-03-25T18:51:43.574Z,145203.78
2023-03-25T18:54:11.010Z,145152.84
2023-03-25T18:56:41.387Z,145205.00
2023-03-25T18:59:11.253Z,145165.00
2023-03-25T19:01:38.681Z,145072.75
2023-03-25T19:04:06.001Z,144932.09
2023-03-25T19:06:33.991Z,144852.13
2023-03-25T19:09:01.074Z,144861.81
2023-03-25T19:11:30.472Z,144835.13
2023-03-25T19:13:59.903Z,144832.69
2023-03-25T19:16:29.592Z,144780.59
2023-03-25T19:18:56.644Z,144692.16
2023-03-25T19:21:23.688Z,144783.03
2023-03-25T19:23:52.063Z,144784.25
2023-03-25T19:26:19.179Z,144830.28
2023-03-25T19:28:46.464Z,144801.22
2023-03-25T19:31:17.034Z,144871.50
2023-03-25T19:33:44.357Z,144815.75
2023-03-25T19:36:16.340Z,144893.31
2023-03-25T19:38:43.424Z,144898.16
2023-03-25T19:41:13.419Z,144790.28
2023-03-25T19:43:41.093Z,144878.78
2023-03-25T19:46:08.403Z,144816.97
2023-03-25T19:48:36.028Z,144804.81
2023-03-25T19:51:03.924Z,144784.25
2023-03-25T19:53:31.123Z,144695.75
2023-03-25T19:56:02.736Z,144774.56
2023-03-25T19:58:29.839Z,144694.56
2023-03-25T20:00:57.061Z,144710.34
2023-03-25T20:03:24.307Z,144687.28
2023-03-25T20:05:59.902Z,144739.41
2023-03-25T20:08:29.160Z,144740.59
2023-03-25T20:10:56.677Z,144650.91
2023-03-25T20:13:23.867Z,144675.19
2023-03-25T20:15:51.865Z,144728.50
2023-03-25T20:18:19.892Z,144716.38
2023-03-25T20:20:47.050Z,144689.72
2023-03-25T20:23:14.243Z,144707.91
2023-03-25T20:25:41.571Z,144739.41
2023-03-25T20:28:09.063Z,144709.09
2023-03-25T20:30:36.350Z,144729.72
2023-03-25T20:33:03.940Z,144798.78
2023-03-25T20:35:31.696Z,144736.97
2023-03-25T20:37:59.256Z,144808.47
2023-03-25T20:40:37.487Z,144759.97
2023-03-25T20:43:13.629Z,144825.44
2023-03-25T20:45:40.928Z,144815.75
2023-03-25T20:48:08.760Z,144802.41
2023-03-25T20:50:36.115Z,144847.28
2023-03-25T20:53:04.134Z,144855.75
2023-03-25T20:55:31.567Z,144873.94
2023-03-25T20:57:58.639Z,144810.91
2023-03-25T21:00:25.753Z,144827.84
2023-03-25T21:02:54.155Z,144858.16
2023-03-25T21:05:21.585Z,144802.41
2023-03-25T21:07:48.666Z,144804.81
2023-03-25T21:10:16.312Z,144792.72
2023-03-25T21:12:44.873Z,144849.66
2023-03-25T21:15:14.886Z,144838.78
2023-03-25T21:17:42.740Z,144795.13
2023-03-25T21:20:10.811Z,144830.28
2023-03-25T21:22:44.444Z,144892.13
2023-03-25T21:25:17.973Z,144893.31
2023-03-25T21:27:46.602Z,144855.75
2023-03-25T21:30:14.816Z,144832.69
2023-03-25T21:32:42.241Z,144889.69
2023-03-25T21:35:09.968Z,144890.88
2023-03-25T21:37:38.708Z,144898.16
2023-03-25T21:40:08.168Z,144864.22
2023-03-25T21:42:38.150Z,144883.63
2023-03-25T21:45:07.347Z,144944.22
2023-03-25T21:47:35.795Z,144894.53
2023-03-25T21:50:09.267Z,144886.03
2023-03-25T21:52:37.284Z,144895.72
2023-03-25T21:55:05.406Z,144927.25
2023-03-25T21:57:37.581Z,144852.13
2023-03-25T22:00:09.887Z,144929.69
2023-03-25T22:02:39.622Z,144952.72
2023-03-25T22:05:07.448Z,144951.53
2023-03-25T22:07:34.431Z,144901.81
2023-03-25T22:10:01.592Z,144904.22
2023-03-25T22:12:29.889Z,144953.94
2023-03-25T22:14:57.293Z,144975.75
2023-03-25T22:17:25.102Z,144985.47
2023-03-25T22:19:52.231Z,144983.06
2023-03-25T22:22:21.434Z,144940.59
2023-03-25T22:24:49.383Z,144927.25
2023-03-25T22:27:16.665Z,144912.72
2023-03-25T22:29:44.165Z,144997.59
2023-03-25T22:32:11.200Z,144898.16
2023-03-25T22:34:39.417Z,144974.56
2023-03-25T22:37:06.768Z,144981.81
2023-03-25T22:39:33.853Z,145017.00
2023-03-25T22:42:01.131Z,144956.38
2023-03-25T22:44:28.191Z,145017.00
2023-03-25T22:46:55.468Z,144986.66
2023-03-25T22:49:22.555Z,144986.66
2023-03-25T22:51:49.902Z,144963.63
2023-03-25T22:54:17.121Z,144979.41
2023-03-25T22:56:44.362Z,145007.28
2023-03-25T22:59:12.806Z,145021.84
2023-03-25T23:01:41.570Z,145033.97
2023-03-25T23:04:09.279Z,145021.84
2023-03-25T23:06:37.293Z,145038.81
2023-03-25T23:09:06.554Z,145018.19
2023-03-25T23:11:35.067Z,145014.53
2023-03-25T23:14:07.339Z,145033.97
2023-03-25T23:16:35.434Z,144966.06
2023-03-25T23:19:05.764Z,145026.69
2023-03-25T23:21:33.424Z,145031.53
2023-03-25T23:24:03.712Z,144972.13
2023-03-25T23:26:37.012Z,145052.16
2023-03-25T23:29:08.659Z,145069.13
2023-03-25T23:31:36.971Z,145071.56
2023-03-25T23:34:07.038Z,145048.53
2023-03-25T23:36:39.233Z,145072.75
2023-03-25T23:39:09.069Z,145088.56
2023-03-25T23:41:36.381Z,145087.31
2023-03-25T23:44:04.568Z,145065.50
2023-03-25T23:46:31.857Z,145036.38
2023-03-25T23:49:02.412Z,145075.22
2023-03-25T23:51:33.179Z,145087.31
2023-03-25T23:54:01.140Z,145002.44
2023-03-25T23:56:29.181Z,145101.91
2023-03-25T23:59:00.052Z,145075.22
